GW3678 Weather Reports


Display with metric or nautical units.
time (UTC)temp
F
wind
direction
speed
MPH
gust
MPH
rain 1hr
in
rain 24hr
in
rain mn
in
humidity
%
barometer
mb
20240303203025 56 290 1.0 13.0 0.00 0.00 0.00 30 1001.6
20240303201506 56 287 5.0 12.0 0.00 0.00 0.00 30 1001.9
20240303200005 56 289 4.0 14.0 0.00 0.00 0.00 31 1002.2
20240303194506 55 284 9.0 15.0 0.00 0.00 0.00 32 1002.3
20240303193005 56 274 11.0 19.0 0.00 0.00 0.00 30 1002.8
20240303191508 55 331 6.0 14.0 0.00 0.00 0.00 33 1003.0
20240303190004 55 290 7.0 11.0 0.00 0.00 0.00 32 1003.2
20240303184509 56 266 3.0 11.0 0.00 0.00 0.00 31 1003.5
20240303183019 56 174 4.0 9.0 0.00 0.00 0.00 32 1003.8
20240303181513 52 94 2.0 10.0 0.00 0.00 0.00 35 1004.0
20240303180013 51 304 4.0 10.0 0.00 0.00 0.00 35 1004.0
20240303174510 50 277 5.0 16.0 0.00 0.00 0.00 36 1004.2
20240303173019 49 322 7.0 14.0 0.00 0.00 0.00 39 1004.4
20240303171509 47 289 9.0 17.0 0.00 0.00 0.00 39 1004.6
20240303170004 46 309 7.0 9.0 0.00 0.00 0.00 41 1004.7
20240303164505 45 281 2.0 8.0 0.00 0.00 0.00 44 1004.8
20240303163007 44 129 1.0 6.0 0.00 0.00 0.00 44 1004.8
20240303161507 44 281 3.0 8.0 0.00 0.00 0.00 43 1005.0
20240303160007 43 248 5.0 10.0 0.00 0.00 0.00 47 1005.1
20240303154509 41 302 5.0 13.0 0.00 0.00 0.00 51 1004.9
20240303153016 40 295 9.0 15.0 0.00 0.00 0.00 53 1004.9
20240303151509 41 278 11.0 18.0 0.00 0.00 0.00 52 1004.9
20240303150012 42 158 2.0 6.0 0.00 0.00 0.00 50 1004.6
20240303144505 40 252 2.0 9.0 0.00 0.00 0.00 56 1004.1
20240303143004 39 287 9.0 17.0 0.00 0.00 0.00 57 1003.6
20240303141523 38 261 10.0 16.0 0.00 0.00 0.00 61 1003.3
20240303140009 38 271 9.0 13.0 0.00 0.00 0.00 60 1002.8
20240303134511 39 290 10.0 14.0 0.00 0.00 0.00 56 1002.3
20240303133008 40 285 5.0 8.0 0.00 0.00 0.00 52 1001.8
20240303131509 43 321 8.0 17.0 0.00 0.00 0.00 48 1001.2
20240303130006 46 290 9.0 12.0 0.00 0.00 0.00 35 1000.5
20240303124504 48 223 7.0 12.0 0.00 0.00 0.00 33 1000.2
20240303123009 49 249 10.0 15.0 0.00 0.00 0.00 33 1000.0
20240303121507 49 191 14.0 23.0 0.00 0.00 0.00 32 999.6
20240303120009 49 145 13.0 18.0 0.00 0.00 0.00 32 999.5
20240303114507 49 216 10.0 18.0 0.00 0.00 0.00 32 999.3
20240303113009 49 239 11.0 17.0 0.00 0.00 0.00 32 999.3
20240303111504 50 228 14.0 24.0 0.00 0.00 0.00 31 999.2
20240303110009 50 200 14.0 24.0 0.00 0.00 0.00 31 998.9
20240303104509 50 212 15.0 23.0 0.00 0.00 0.00 32 999.0
20240303103009 50 216 17.0 25.0 0.00 0.00 0.00 31 999.0
20240303101514 50 243 16.0 25.0 0.00 0.00 0.00 31 999.0
20240303100005 51 236 16.0 23.0 0.00 0.00 0.00 30 999.0
20240303094508 51 198 15.0 24.0 0.00 0.00 0.00 29 999.2
20240303093008 51 219 15.0 29.0 0.00 0.00 0.00 28 999.2
20240303091509 51 226 17.0 25.0 0.00 0.00 0.00 28 999.2
20240303090018 52 184 15.0 24.0 0.00 0.00 0.00 27 999.2
20240303084512 52 224 14.0 21.0 0.00 0.00 0.00 26 999.2
20240303083008 53 192 19.0 27.0 0.00 0.00 0.00 25 999.2
20240303081509 53 182 14.0 24.0 0.00 0.00 0.00 24 999.5
20240303080009 53 210 15.0 32.0 0.00 0.00 0.00 24 999.4
20240303074505 54 214 16.0 26.0 0.00 0.00 0.00 23 999.4
20240303073004 54 179 17.0 28.0 0.00 0.00 0.00 23 999.4
20240303071509 54 235 16.0 24.0 0.00 0.00 0.00 22 999.4
20240303070014 54 213 17.0 29.0 0.00 0.00 0.00 22 999.5
20240303064507 55 242 16.0 29.0 0.00 0.00 0.00 21 999.2
20240303063005 55 238 17.0 28.0 0.00 0.00 0.00 21 999.0
20240303061508 55 222 16.0 33.0 0.00 0.00 0.00 20 998.9
20240303060005 56 237 17.0 25.0 0.00 0.00 0.00 20 998.8
20240303054505 56 214 17.0 28.0 0.00 0.00 0.00 20 998.7
20240303053005 57 246 23.0 32.0 0.00 0.00 0.00 19 998.7
20240303051507 57 237 17.0 32.0 0.00 0.00 0.00 19 998.7
20240303050010 57 236 21.0 33.0 0.00 0.00 0.00 19 998.8
20240303044516 58 160 23.0 36.0 0.00 0.00 0.00 18 998.9
20240303043004 58 241 23.0 34.0 0.00 0.00 0.00 18 999.1
20240303041505 58 213 18.0 37.0 0.00 0.00 0.00 17 999.4
20240303040004 59 248 18.0 31.0 0.00 0.00 0.00 17 999.5
20240303034508 59 219 24.0 33.0 0.00 0.00 0.00 17 999.5
20240303033015 59 231 19.0 34.0 0.00 0.00 0.00 17 999.6
20240303031506 59 222 19.0 28.0 0.00 0.00 0.00 17 999.6
20240303030005 59 227 17.0 29.0 0.00 0.00 0.00 17 999.7
20240303024517 59 236 16.0 29.0 0.00 0.00 0.00 16 999.8
20240303023005 59 248 20.0 27.0 0.00 0.00 0.00 16 999.9
20240303021506 59 269 14.0 29.0 0.00 0.00 0.00 17 999.8
20240303020005 59 278 13.0 19.0 0.00 0.00 0.00 17 1000.2
20240303014505 58 221 11.0 19.0 0.00 0.00 0.00 17 1000.5
20240303013008 57 228 9.0 13.0 0.00 0.00 0.00 17 1000.7
20240303011509 58 217 7.0 11.0 0.00 0.00 0.00 17 1000.8
20240303010006 60 230 10.0 20.0 0.00 0.00 0.00 15 1000.9
20240303004505 60 233 9.0 21.0 0.00 0.00 0.00 15 1000.8
20240303003005 62 251 17.0 29.0 0.00 0.00 0.00 14 1000.6
20240303001511 62 217 20.0 29.0 0.00 0.00 0.00 14 1000.5
20240303000014 63 218 20.0 31.0 0.00 0.00 0.00 13 1000.3
20240302234506 65 235 19.0 28.0 0.00 0.00 0.00 11 1000.5
20240302233012 66 265 17.0 30.0 0.00 0.00 0.00 11 1000.8
20240302231509 65 250 18.0 32.0 0.00 0.00 0.00 12 1001.2
20240302230005 67 267 16.0 29.0 0.00 0.00 0.00 10 1001.2
20240302224508 66 215 19.0 30.0 0.00 0.00 0.00 11 1001.2
20240302223005 68 210 15.0 25.0 0.00 0.00 0.00 10 1001.2
20240302221507 69 228 15.0 23.0 0.00 0.00 0.00 9 1001.3
20240302220009 69 211 17.0 26.0 0.00 0.00 0.00 8 1001.5
20240302214511 67 255 23.0 36.0 0.00 0.00 0.00 7 1001.8
20240302213005 67 285 31.0 44.0 0.00 0.00 0.00 7 1002.1
20240302211505 67 283 27.0 39.0 0.00 0.00 0.00 8 1002.4
20240302210005 67 281 14.0 32.0 0.00 0.00 0.00 8 1003.1
20240302204509 68 283 19.0 30.0 0.00 0.00 0.00 8 1003.2